Spiritwood, North Dakota
Current Conditions -  °F | °C
As of 7:56 PM on Saturday 20 Dec 2014 (Local Time) from KJMS Reporting Station
Haze Haze  
Wind Chill: 17°   Ceiling: 300
Heat Index: 28°   Visibility: 4mi
Dew Point: 25°   Wind: 14mph
Humidity: 88%   Direction: 180°S
Pressure: 29.83"   Gusts: NA
Location:  46.94°N, 98.5°W
Report Text: KJMS 210156Z AUTO 18012KT 4SM BR OVC003 M02/M04 A2983 RMK AO2 SLP126 I1000 T10221039
Loading
Personal Weather Stations






























Interactive Weather Map New forecast layout! Learn more

10-Day Weather Forecast

Advertisements
Track Severe Weather on mobile